Historique des mesures à Cassis (13260), France
Quotidien Résumé Avril 21, 2018 Unités:  Métrique    US   Métrique/US
« Précédent (Jour)
Suivant (Jour) »
Quotidien Hebdomadaire Mensuel Annuel Période au choix
  Maximum: Minimum: Moyenne:
Température: TemperatureC °C 17.7 °C 20.5 °C
Point de rosée: DewpointC °C 7.6 °C 9.9 °C
Humidité: Humidity % 39 % 48 %
Vitesse du vent: 0 km/h 0 km/h 4.2 km/h
Rafales: 0 km/h - -
Vent:- - South
Pression: PressurehPa hPa 1014.4 hPa -
Précipitations: 0.0 mm    
Historical Graphs
 
 
Mesures pour : Avril 21, 2018
Heure Temperature Point de rosée Pression Vent Vitesse du vent Rafales Humidité Pluie (par heure) Conditions
TemperatureC °C DewpointC °C PressurehPa hPa Calm     Humidity % HourlyPrecipMM mm SoftwareType W/m2
00:11 17.7 °C 8.8 °C 1017.5 hPa NNW 1.8 km/h 4.2 km/h 56 % 0.0 mm open2300-1.11 W/m2
01:10 18.0 °C 8.8 °C 1017.2 hPa ENE 6.4 km/h 6.4 km/h 55 % 0.0 mm open2300-1.11 W/m2
02:10 18.6 °C 8.8 °C 1016.8 hPa NNW 4.2 km/h 8 km/h 53 % 0.0 mm open2300-1.11 W/m2
03:10 18.5 °C 8.7 °C 1016.5 hPa North 5.1 km/h 8 km/h 53 % 0.0 mm open2300-1.11 W/m2
04:10 18.8 °C 9.0 °C 1015.8 hPa NNW 15.6 km/h 15.6 km/h 53 % 0.0 mm open2300-1.11 W/m2
05:10 18.8 °C 9.0 °C 1015.8 hPa North 6.9 km/h 7.6 km/h 53 % 0.0 mm open2300-1.11 W/m2
06:10 18.5 °C 9.0 °C 1015.5 hPa North 7.6 km/h 7.6 km/h 54 % 0.0 mm open2300-1.11 W/m2
07:10 18.6 °C 9.1 °C 1015.8 hPa Calm   5.1 km/h 54 % 0.0 mm open2300-1.11 W/m2
08:10 19.3 °C 9.7 °C 1015.8 hPa NW 4.2 km/h 4.2 km/h 54 % 0.0 mm open2300-1.11 W/m2
09:10 20.6 °C 10.7 °C 1015.8 hPa SSE 6.4 km/h 9.8 km/h 53 % 0.0 mm open2300-1.11 W/m2
10:10 20.5 °C 10.8 °C 1016.1 hPa ESE 5.1 km/h 5.1 km/h 54 % 0.0 mm open2300-1.11 W/m2
11:12 24.1 °C 11.7 °C 1016.5 hPa Calm   10.3 km/h 46 % 0.0 mm open2300-1.11 W/m2
12:11 25.6 °C 14.1 °C 1016.8 hPa SSE 6.4 km/h 8 km/h 49 % 0.0 mm open2300-1.11 W/m2
13:12 25.8 °C 12.9 °C 1016.5 hPa SSE 5.1 km/h 9.3 km/h 45 % 0.0 mm open2300-1.11 W/m2
14:12 26.1 °C 12.2 °C 1016.1 hPa Calm   6.4 km/h 42 % 0.0 mm open2300-1.11 W/m2
15:12 26.1 °C 11.8 °C 1015.8 hPa SSE 5.6 km/h 5.6 km/h 41 % 0.0 mm open2300-1.11 W/m2
16:11 25.9 °C 10.9 °C 1015.8 hPa SE 10.9 km/h 10.9 km/h 39 % 0.0 mm open2300-1.11 W/m2
17:12 24.8 °C 12.0 °C 1015.1 hPa Calm   10.9 km/h 45 % 0.0 mm open2300-1.11 W/m2
18:11 23.4 °C 12.1 °C 1014.8 hPa SSE 7.6 km/h 7.6 km/h 49 % 0.0 mm open2300-1.11 W/m2
19:12 22.7 °C 11.1 °C 1014.4 hPa Calm   4.7 km/h 48 % 0.0 mm open2300-1.11 W/m2
20:11 21.8 °C 10.9 °C 1014.4 hPa NW 2.9 km/h 2.9 km/h 50 % 0.0 mm open2300-1.11 W/m2
21:11 20.3 °C 9.6 °C 1014.4 hPa NNW 1.8 km/h 1.8 km/h 50 % 0.0 mm open2300-1.11 W/m2
22:11 19.9 °C 7.9 °C 1015.1 hPa Calm     46 % 0.0 mm open2300-1.11 W/m2
23:11 18.8 °C 7.6 °C 1015.1 hPa Calm     48 % 0.0 mm open2300-1.11 W/m2
Observations météo à CASSIS
WU-History script by Weather Underground - 1 mb